Time;durP1;ratioP1;P1;durP2;ratioP2;P2;SDS_P1;SDS_P2;PMS_P1;PMS_P2;Temp;Humidity;BMP_temperature;BMP_pressure;BME280_temperature;BME280_humidity;BME280_pressure;Samples;Min_cycle;Max_cycle;Signal;HPM_P1;HPM_P2
2022/08/05 00:01:19;;;;;;;2.60;2.00;;;;;;;;;;10175921;28;20185;-60
2022/08/05 00:06:27;;;;;;;5.25;2.08;;;;;;;;;;10177440;28;20053;-60
2022/08/05 00:11:32;;;;;;;4.22;2.20;;;;;;;;;;10174920;28;20431;-59
2022/08/05 00:16:45;;;;;;;6.05;2.95;;;;;;;;;;10167119;28;20058;-59
2022/08/05 00:21:52;;;;;;;3.75;2.78;;;;;;;;;;10177161;28;20085;-60
2022/08/05 00:26:51;;;;;;;5.78;2.80;;;;;;;;;;10178503;28;20069;-60
2022/08/05 00:31:50;;;;;;;5.38;3.30;;;;;;;;;;10176029;28;20570;-59
2022/08/05 00:37:09;;;;;;;6.78;2.67;;;;;;;;;;10158099;28;20074;-60
2022/08/05 00:42:11;;;;;;;5.90;2.80;;;;;;;;;;10158345;28;20092;-61
2022/08/05 00:47:29;;;;;;;5.65;2.50;;;;;;;;;;10158040;28;20305;-59
2022/08/05 00:52:49;;;;;;;4.57;2.70;;;;;;;;;;10157474;28;20065;-60
2022/08/05 00:57:50;;;;;;;3.33;3.03;;;;;;;;;;10158095;28;20058;-60
2022/08/05 01:02:55;;;;;;;6.50;3.17;;;;;;;;;;10157631;28;20489;-60
2022/08/05 01:07:55;;;;;;;3.47;2.90;;;;;;;;;;10157543;28;20046;-60
2022/08/05 01:13:16;;;;;;;4.30;2.90;;;;;;;;;;10157764;28;20423;-60
2022/08/05 01:18:22;;;;;;;3.63;3.20;;;;;;;;;;10156777;28;20049;-60
2022/08/05 01:23:29;;;;;;;6.53;2.97;;;;;;;;;;10156538;28;20092;-60
2022/08/05 01:28:36;;;;;;;4.03;2.70;;;;;;;;;;10157149;28;20082;-60
2022/08/05 01:33:39;;;;;;;2.60;2.40;;;;;;;;;;10157052;28;20047;-59
2022/08/05 01:38:37;;;;;;;11.90;10.80;;;;;;;;;;10156476;28;20050;-59
2022/08/05 01:43:38;;;;;;;4.72;4.22;;;;;;;;;;10156799;28;20507;-59
2022/08/05 01:48:39;;;;;;;4.15;3.75;;;;;;;;;;10156061;28;20510;-59
2022/08/05 01:53:38;;;;;;;5.57;4.20;;;;;;;;;;10155887;28;20049;-60
2022/08/05 01:58:57;;;;;;;4.20;2.67;;;;;;;;;;10155860;28;20046;-59
2022/08/05 02:03:56;;;;;;;8.82;3.00;;;;;;;;;;10154672;28;20081;-59
2022/08/05 02:08:56;;;;;;;6.90;2.83;;;;;;;;;;10155306;28;20066;-59
2022/08/05 02:14:00;;;;;;;5.18;3.25;;;;;;;;;;10155578;28;20046;-59
2022/08/05 02:19:01;;;;;;;3.60;2.70;;;;;;;;;;10154901;28;20405;-60
2022/08/05 02:24:05;;;;;;;7.30;2.85;;;;;;;;;;10154479;28;20074;-59
2022/08/05 02:29:06;;;;;;;7.97;3.63;;;;;;;;;;10154957;28;20043;-59
2022/08/05 02:34:19;;;;;;;7.45;3.38;;;;;;;;;;10154569;28;20046;-61
2022/08/05 02:39:21;;;;;;;5.15;3.17;;;;;;;;;;10154512;28;20046;-60
2022/08/05 02:44:23;;;;;;;4.35;2.83;;;;;;;;;;10153620;28;20074;-59
2022/08/05 02:49:22;;;;;;;6.63;3.50;;;;;;;;;;10153554;28;20038;-59
2022/08/05 02:54:23;;;;;;;4.93;3.05;;;;;;;;;;10153516;28;20086;-59
2022/08/05 02:59:36;;;;;;;4.63;3.22;;;;;;;;;;10153793;28;20042;-59
2022/08/05 03:04:49;;;;;;;4.72;4.10;;;;;;;;;;10153838;28;20120;-59
2022/08/05 03:09:50;;;;;;;6.30;3.03;;;;;;;;;;10153887;28;20046;-59
2022/08/05 03:14:51;;;;;;;3.78;3.00;;;;;;;;;;10157086;28;20488;-59
2022/08/05 03:19:49;;;;;;;4.80;3.85;;;;;;;;;;10161238;28;20062;-59
2022/08/05 03:24:48;;;;;;;6.93;2.90;;;;;;;;;;10161255;28;20185;-59
2022/08/05 03:29:49;;;;;;;4.15;3.10;;;;;;;;;;10160810;28;20615;-59
2022/08/05 03:35:08;;;;;;;4.82;3.60;;;;;;;;;;10198224;28;20065;-59
2022/08/05 03:40:08;;;;;;;7.65;4.38;;;;;;;;;;10199026;28;20046;-60
2022/08/05 03:45:09;;;;;;;5.73;3.70;;;;;;;;;;10200592;28;20073;-59
2022/08/05 03:50:21;;;;;;;5.63;4.75;;;;;;;;;;10200429;28;20488;-60
2022/08/05 03:55:25;;;;;;;9.07;5.50;;;;;;;;;;10200460;28;20046;-60
2022/08/05 04:00:44;;;;;;;7.38;5.35;;;;;;;;;;10200453;28;20076;-59
2022/08/05 04:05:49;;;;;;;15.05;6.22;;;;;;;;;;10200194;28;20132;-59
2022/08/05 04:10:49;;;;;;;16.92;13.07;;;;;;;;;;10192034;28;20085;-59
2022/08/05 04:15:47;;;;;;;14.00;11.68;;;;;;;;;;10159488;28;20043;-59
2022/08/05 04:21:03;;;;;;;13.13;7.50;;;;;;;;;;10158917;28;20069;-59
2022/08/05 04:26:03;;;;;;;19.27;10.55;;;;;;;;;;10158361;28;20681;-59
2022/08/05 04:31:01;;;;;;;21.33;13.80;;;;;;;;;;10159572;28;20092;-59
2022/08/05 04:36:08;;;;;;;8.35;3.90;;;;;;;;;;10158958;28;20038;-59
2022/08/05 04:41:26;;;;;;;12.15;7.15;;;;;;;;;;10164514;28;20058;-58
2022/08/05 04:46:34;;;;;;;15.27;11.52;;;;;;;;;;10186924;28;20073;-59
2022/08/05 04:51:33;;;;;;;12.90;5.55;;;;;;;;;;10169924;28;20069;-59
2022/08/05 04:56:32;;;;;;;12.07;5.93;;;;;;;;;;10171587;28;20038;-59
2022/08/05 05:01:34;;;;;;;12.88;6.03;;;;;;;;;;10176552;28;20038;-59
2022/08/05 05:06:54;;;;;;;16.60;6.93;;;;;;;;;;10173387;28;20430;-59
2022/08/05 05:11:54;;;;;;;17.88;6.80;;;;;;;;;;10178851;28;20049;-59
2022/08/05 05:17:00;;;;;;;17.60;6.85;;;;;;;;;;10175177;28;20081;-59
2022/08/05 05:21:59;;;;;;;21.00;6.65;;;;;;;;;;10175837;28;20108;-60
2022/08/05 05:27:18;;;;;;;17.50;5.47;;;;;;;;;;10173668;28;20460;-59
2022/08/05 05:32:18;;;;;;;8.95;4.40;;;;;;;;;;10170469;28;20042;-61
2022/08/05 05:37:19;;;;;;;10.40;5.18;;;;;;;;;;10179548;28;20038;-60
2022/08/05 05:42:28;;;;;;;11.38;4.68;;;;;;;;;;10169576;28;20511;-60
2022/08/05 05:47:26;;;;;;;13.95;4.53;;;;;;;;;;10179370;28;20084;-60
2022/08/05 05:52:47;;;;;;;4.45;3.78;;;;;;;;;;10181683;28;20076;-59
2022/08/05 05:57:47;;;;;;;4.23;3.70;;;;;;;;;;10174886;28;20073;-60
2022/08/05 06:02:50;;;;;;;5.22;4.30;;;;;;;;;;10189003;28;21194;-59
2022/08/05 06:07:49;;;;;;;5.78;4.18;;;;;;;;;;10152506;28;20444;-58
2022/08/05 06:12:59;;;;;;;10.85;3.97;;;;;;;;;;10160298;28;20536;-60
2022/08/05 06:17:57;;;;;;;6.53;5.07;;;;;;;;;;10148745;28;20069;-59
2022/08/05 06:22:58;;;;;;;7.28;3.80;;;;;;;;;;10168491;28;20788;-59
2022/08/05 06:27:56;;;;;;;6.30;4.22;;;;;;;;;;10167775;28;20066;-59
2022/08/05 06:33:14;;;;;;;6.07;5.20;;;;;;;;;;10167505;28;20088;-59
2022/08/05 06:38:31;;;;;;;5.78;4.60;;;;;;;;;;10164129;28;20089;-59
2022/08/05 06:43:34;;;;;;;7.50;4.90;;;;;;;;;;10166834;28;20097;-59
2022/08/05 06:48:52;;;;;;;5.55;4.38;;;;;;;;;;10164688;28;20066;-60
2022/08/05 06:53:58;;;;;;;9.05;4.38;;;;;;;;;;10145912;28;20065;-60
2022/08/05 06:58:56;;;;;;;5.93;4.43;;;;;;;;;;10153814;28;20524;-60
2022/08/05 07:03:54;;;;;;;5.82;4.78;;;;;;;;;;10161521;28;20082;-60
2022/08/05 07:08:53;;;;;;;6.47;5.00;;;;;;;;;;10159229;28;20077;-60
2022/08/05 07:19:27;;;;;;;12.57;4.70;;;;;;;;;;10159787;28;20491;-60
2022/08/05 07:24:46;;;;;;;5.93;5.35;;;;;;;;;;10167375;28;20092;-58
2022/08/05 07:29:52;;;;;;;5.78;4.63;;;;;;;;;;10154579;28;20444;-59
2022/08/05 07:35:10;;;;;;;5.10;4.30;;;;;;;;;;10155596;28;20078;-59
2022/08/05 07:40:29;;;;;;;13.43;7.35;;;;;;;;;;10150136;28;20082;-59
2022/08/05 07:45:31;;;;;;;11.35;7.25;;;;;;;;;;10150688;28;20538;-60
2022/08/05 07:50:50;;;;;;;7.80;4.55;;;;;;;;;;10149127;28;20516;-60
2022/08/05 07:55:48;;;;;;;5.63;4.60;;;;;;;;;;10143242;28;20085;-60
2022/08/05 08:01:08;;;;;;;8.10;5.13;;;;;;;;;;10144946;28;20092;-60
2022/08/05 08:06:09;;;;;;;10.45;5.25;;;;;;;;;;10152334;28;20081;-60
2022/08/05 08:11:07;;;;;;;10.02;4.82;;;;;;;;;;10158593;28;20065;-61
2022/08/05 08:16:14;;;;;;;8.57;4.32;;;;;;;;;;10159865;28;20074;-60
2022/08/05 08:21:32;;;;;;;4.60;3.10;;;;;;;;;;10157604;28;20069;-60
2022/08/05 08:26:31;;;;;;;8.45;3.90;;;;;;;;;;10140725;28;20133;-60
2022/08/05 08:31:30;;;;;;;8.43;4.43;;;;;;;;;;10144828;28;20108;-58
2022/08/05 08:36:30;;;;;;;8.88;4.50;;;;;;;;;;10137694;28;20062;-59
2022/08/05 08:41:49;;;;;;;8.80;4.97;;;;;;;;;;10135270;28;20070;-60
2022/08/05 08:47:02;;;;;;;19.73;6.57;;;;;;;;;;10131071;28;20085;-61
2022/08/05 08:52:23;;;;;;;6.53;4.60;;;;;;;;;;10167307;28;20656;-60
2022/08/05 08:57:22;;;;;;;7.15;3.20;;;;;;;;;;10180416;28;20066;-59
2022/08/05 09:02:40;;;;;;;9.82;5.88;;;;;;;;;;10169246;28;20066;-61
2022/08/05 09:07:43;;;;;;;6.85;3.90;;;;;;;;;;10179714;28;20069;-59
2022/08/05 09:12:55;;;;;;;9.27;4.28;;;;;;;;;;10171764;28;20065;-59
2022/08/05 09:18:02;;;;;;;8.02;4.28;;;;;;;;;;10168939;28;20476;-59
2022/08/05 09:23:10;;;;;;;5.70;3.58;;;;;;;;;;10172320;28;20082;-60
2022/08/05 09:28:22;;;;;;;7.53;3.90;;;;;;;;;;10172623;28;20464;-62
2022/08/05 09:33:22;;;;;;;13.80;5.78;;;;;;;;;;10160573;28;20073;-60
2022/08/05 09:38:32;;;;;;;9.40;5.13;;;;;;;;;;10162831;28;20069;-59
2022/08/05 09:43:31;;;;;;;6.15;3.80;;;;;;;;;;10180835;28;20077;-60
2022/08/05 09:48:40;;;;;;;5.30;3.53;;;;;;;;;;10169676;28;20078;-61
2022/08/05 09:53:52;;;;;;;5.83;4.00;;;;;;;;;;10150831;28;20074;-60
2022/08/05 09:58:58;;;;;;;10.15;3.90;;;;;;;;;;10174243;28;20639;-60
2022/08/05 10:03:59;;;;;;;7.03;4.38;;;;;;;;;;10166768;28;20503;-61
2022/08/05 10:09:09;;;;;;;8.13;4.65;;;;;;;;;;10149921;28;20062;-59
2022/08/05 10:14:27;;;;;;;5.43;4.60;;;;;;;;;;10169878;28;20129;-60
2022/08/05 10:19:31;;;;;;;5.65;4.03;;;;;;;;;;10176548;28;20093;-60
2022/08/05 10:24:49;;;;;;;9.52;4.10;;;;;;;;;;10163949;28;20072;-61
2022/08/05 10:29:49;;;;;;;15.27;4.80;;;;;;;;;;10168910;28;20503;-59
2022/08/05 10:35:09;;;;;;;11.18;4.47;;;;;;;;;;10169013;28;20475;-59
2022/08/05 10:40:10;;;;;;;8.60;4.10;;;;;;;;;;10172792;28;20077;-60
2022/08/05 10:45:15;;;;;;;9.27;4.40;;;;;;;;;;10170502;28;20540;-60
2022/08/05 10:50:55;;;;;;;6.47;3.88;;;;;;;;;;10163044;28;20085;-60
2022/08/05 10:56:02;;;;;;;12.27;4.78;;;;;;;;;;10170244;28;20503;-59
2022/08/05 11:01:18;;;;;;;7.85;3.85;;;;;;;;;;10167907;28;20062;-59
2022/08/05 11:06:59;;;;;;;7.03;4.38;;;;;;;;;;10167232;28;20078;-60
2022/08/05 11:11:58;;;;;;;3.58;2.90;;;;;;;;;;10160695;28;20177;-60
2022/08/05 11:17:16;;;;;;;7.38;3.05;;;;;;;;;;10171157;28;20069;-60
2022/08/05 11:22:40;;;;;;;7.25;3.70;;;;;;;;;;10179444;28;20097;-59
2022/08/05 11:27:39;;;;;;;5.80;3.45;;;;;;;;;;10171948;28;20092;-59
2022/08/05 11:33:12;;;;;;;9.10;3.42;;;;;;;;;;10170406;28;20073;-60
2022/08/05 11:38:39;;;;;;;3.00;2.70;;;;;;;;;;10179823;28;20091;-60
2022/08/05 11:43:55;;;;;;;7.95;3.20;;;;;;;;;;10166606;28;20069;-60
2022/08/05 11:49:04;;;;;;;7.95;4.13;;;;;;;;;;10162275;28;20515;-60
2022/08/05 11:54:06;;;;;;;7.78;2.97;;;;;;;;;;10169632;28;20058;-59
2022/08/05 11:59:05;;;;;;;5.40;2.78;;;;;;;;;;10174815;28;20074;-58
2022/08/05 12:04:10;;;;;;;4.57;2.97;;;;;;;;;;10172549;28;20069;-59
2022/08/05 12:09:12;;;;;;;7.18;2.95;;;;;;;;;;10170642;28;20080;-60
2022/08/05 12:14:17;;;;;;;3.95;3.22;;;;;;;;;;10172271;28;20750;-60
2022/08/05 12:19:16;;;;;;;6.60;3.25;;;;;;;;;;10156208;28;20081;-58
2022/08/05 12:24:39;;;;;;;4.82;2.75;;;;;;;;;;10160973;28;20082;-58
2022/08/05 12:29:46;;;;;;;5.20;3.63;;;;;;;;;;10165863;28;20065;-59
2022/08/05 12:34:54;;;;;;;5.55;3.33;;;;;;;;;;10167719;28;20058;-59
2022/08/05 12:39:56;;;;;;;4.35;3.63;;;;;;;;;;10176421;28;20468;-60
2022/08/05 12:45:08;;;;;;;5.38;2.85;;;;;;;;;;10171284;28;20560;-60
2022/08/05 12:50:12;;;;;;;10.13;3.45;;;;;;;;;;10162666;28;20069;-58
2022/08/05 12:55:19;;;;;;;9.35;2.90;;;;;;;;;;10177181;28;20456;-61
2022/08/05 13:00:20;;;;;;;6.43;3.50;;;;;;;;;;10184218;28;20082;-61
2022/08/05 13:05:38;;;;;;;8.45;3.58;;;;;;;;;;10161326;28;20088;-60
2022/08/05 13:10:43;;;;;;;4.28;2.63;;;;;;;;;;10175077;28;20570;-61
2022/08/05 13:15:51;;;;;;;8.07;3.97;;;;;;;;;;10167483;28;20065;-61
2022/08/05 13:20:49;;;;;;;6.13;3.47;;;;;;;;;;10157636;28;20073;-60
2022/08/05 13:25:49;;;;;;;5.10;2.97;;;;;;;;;;10168601;28;20538;-59
2022/08/05 13:30:56;;;;;;;5.38;3.00;;;;;;;;;;10163971;28;20528;-60
2022/08/05 13:35:54;;;;;;;5.78;3.33;;;;;;;;;;10170476;28;20687;-59
2022/08/05 13:41:00;;;;;;;5.80;2.97;;;;;;;;;;10151982;28;20461;-60
2022/08/05 13:46:00;;;;;;;8.15;3.20;;;;;;;;;;10154905;28;20077;-61
2022/08/05 13:51:05;;;;;;;6.28;3.63;;;;;;;;;;10156032;28;20070;-61
2022/08/05 13:56:04;;;;;;;11.90;4.50;;;;;;;;;;10162581;28;20069;-60
2022/08/05 14:01:15;;;;;;;8.83;4.60;;;;;;;;;;10155604;28;20110;-60
2022/08/05 14:06:14;;;;;;;9.50;5.18;;;;;;;;;;10153584;28;20109;-60
2022/08/05 14:11:25;;;;;;;8.35;4.38;;;;;;;;;;10143589;28;20057;-61
2022/08/05 14:16:28;;;;;;;10.52;4.50;;;;;;;;;;10159125;28;20080;-60
2022/08/05 14:21:26;;;;;;;6.90;3.83;;;;;;;;;;10128882;28;20086;-60
2022/08/05 14:26:46;;;;;;;7.70;4.03;;;;;;;;;;10110249;28;20488;-60
2022/08/05 14:32:05;;;;;;;8.75;2.83;;;;;;;;;;10111560;28;20081;-61
2022/08/05 14:37:23;;;;;;;4.15;2.83;;;;;;;;;;10114004;28;20046;-60
2022/08/05 14:42:44;;;;;;;8.48;4.38;;;;;;;;;;10111111;28;20507;-60
2022/08/05 14:47:42;;;;;;;7.68;5.78;;;;;;;;;;10110100;28;20081;-61
2022/08/05 14:53:00;;;;;;;10.68;5.50;;;;;;;;;;10111108;28;20085;-61
2022/08/05 14:58:00;;;;;;;8.55;4.40;;;;;;;;;;10112998;28;20082;-61
2022/08/05 15:03:08;;;;;;;9.82;3.92;;;;;;;;;;10114414;28;20054;-60
2022/08/05 15:08:06;;;;;;;9.10;2.97;;;;;;;;;;10114535;28;20516;-60
2022/08/05 15:13:16;;;;;;;10.45;3.72;;;;;;;;;;10122458;28;20454;-61
2022/08/05 15:18:15;;;;;;;5.97;3.38;;;;;;;;;;10122189;28;20082;-61
2022/08/05 15:23:14;;;;;;;12.15;5.00;;;;;;;;;;10122155;28;20456;-61
2022/08/05 15:28:13;;;;;;;16.60;4.85;;;;;;;;;;10121336;28;20090;-61
2022/08/05 15:33:14;;;;;;;9.13;3.67;;;;;;;;;;10121967;28;20485;-61
2022/08/05 15:38:33;;;;;;;7.05;3.78;;;;;;;;;;10121369;28;20046;-60
2022/08/05 15:43:39;;;;;;;9.38;4.32;;;;;;;;;;10121904;28;20173;-61
2022/08/05 15:48:45;;;;;;;4.35;3.75;;;;;;;;;;10119248;28;20046;-60
2022/08/05 15:53:58;;;;;;;9.45;4.95;;;;;;;;;;10120796;28;20370;-61
2022/08/05 15:58:58;;;;;;;10.73;4.03;;;;;;;;;;10118612;28;20043;-61
2022/08/05 16:03:57;;;;;;;8.93;3.58;;;;;;;;;;10120430;28;20081;-60
2022/08/05 16:08:56;;;;;;;9.63;2.72;;;;;;;;;;10120006;28;20078;-60
2022/08/05 16:13:55;;;;;;;4.15;2.95;;;;;;;;;;10119942;28;20070;-60
2022/08/05 16:18:53;;;;;;;8.15;2.72;;;;;;;;;;10120074;28;20278;-60
2022/08/05 16:23:53;;;;;;;6.43;3.83;;;;;;;;;;10117880;28;20058;-61
2022/08/05 16:28:55;;;;;;;8.90;3.53;;;;;;;;;;10119433;28;20445;-59
2022/08/05 16:33:53;;;;;;;6.35;3.53;;;;;;;;;;10119571;28;20066;-60
2022/08/05 16:38:53;;;;;;;5.60;3.53;;;;;;;;;;10118836;28;20089;-61
2022/08/05 16:43:52;;;;;;;5.22;3.42;;;;;;;;;;10119105;28;20070;-61
2022/08/05 16:48:53;;;;;;;5.18;2.88;;;;;;;;;;10118522;28;20090;-61
2022/08/05 16:53:54;;;;;;;6.93;3.95;;;;;;;;;;10118458;28;20050;-60
2022/08/05 16:59:09;;;;;;;4.60;3.08;;;;;;;;;;10118111;28;20042;-61
2022/08/05 17:04:07;;;;;;;10.75;3.17;;;;;;;;;;10118282;28;20054;-61
2022/08/05 17:09:08;;;;;;;6.15;3.60;;;;;;;;;;10118344;28;20085;-61
2022/08/05 17:14:07;;;;;;;9.25;3.55;;;;;;;;;;10117349;28;20055;-62
2022/08/05 17:19:10;;;;;;;4.93;4.38;;;;;;;;;;10117727;28;20086;-61
2022/08/05 17:24:10;;;;;;;6.10;4.32;;;;;;;;;;10115941;28;20102;-61
2022/08/05 17:29:28;;;;;;;5.93;3.90;;;;;;;;;;10117155;28;20074;-61
2022/08/05 17:34:37;;;;;;;6.97;4.57;;;;;;;;;;10116614;28;20070;-60
2022/08/05 17:39:37;;;;;;;6.78;4.47;;;;;;;;;;10117391;28;20047;-61
2022/08/05 17:44:40;;;;;;;4.78;4.05;;;;;;;;;;10116968;28;20075;-61
2022/08/05 17:49:47;;;;;;;6.65;3.25;;;;;;;;;;10117611;28;20477;-60
2022/08/05 17:55:02;;;;;;;6.50;3.22;;;;;;;;;;10116650;28;20058;-61
2022/08/05 18:00:05;;;;;;;5.00;3.95;;;;;;;;;;10116342;28;20077;-60
2022/08/05 18:05:04;;;;;;;6.72;3.10;;;;;;;;;;10115686;28;20035;-60
2022/08/05 18:10:07;;;;;;;4.93;3.13;;;;;;;;;;10116235;28;20504;-60
2022/08/05 18:15:08;;;;;;;4.50;3.28;;;;;;;;;;10116225;28;20054;-60
2022/08/05 18:20:07;;;;;;;4.65;3.35;;;;;;;;;;10115454;28;20059;-62
2022/08/05 18:25:13;;;;;;;4.38;3.42;;;;;;;;;;10113340;28;20416;-61
2022/08/05 18:30:14;;;;;;;9.68;3.40;;;;;;;;;;10142739;28;20480;-61
2022/08/05 18:35:12;;;;;;;5.10;3.38;;;;;;;;;;10171139;28;20072;-61
2022/08/05 18:40:11;;;;;;;3.85;3.45;;;;;;;;;;10179313;28;20070;-60
2022/08/05 18:45:31;;;;;;;4.78;3.88;;;;;;;;;;10173606;28;20085;-61
2022/08/05 18:56:15;;;;;;;5.30;3.78;;;;;;;;;;10170923;28;20062;-61
2022/08/05 19:01:20;;;;;;;5.65;3.40;;;;;;;;;;10170063;28;20065;-60
2022/08/05 19:06:38;;;;;;;4.75;3.45;;;;;;;;;;10169841;28;20046;-62
2022/08/05 19:11:43;;;;;;;5.03;3.65;;;;;;;;;;10177450;28;20070;-62
2022/08/05 19:16:58;;;;;;;4.18;3.45;;;;;;;;;;10167690;28;20073;-62
2022/08/05 19:21:57;;;;;;;8.20;4.00;;;;;;;;;;10166413;28;20094;-62
2022/08/05 19:26:55;;;;;;;4.82;3.63;;;;;;;;;;10167335;28;20515;-62
2022/08/05 19:31:54;;;;;;;4.35;3.95;;;;;;;;;;10165660;28;20093;-61
2022/08/05 19:36:56;;;;;;;7.03;4.35;;;;;;;;;;10171418;28;20070;-61
2022/08/05 19:41:54;;;;;;;8.38;3.80;;;;;;;;;;10159035;28;20070;-62
2022/08/05 19:47:06;;;;;;;11.18;4.55;;;;;;;;;;10167177;28;20066;-60
2022/08/05 19:52:08;;;;;;;4.05;3.70;;;;;;;;;;10168567;28;20078;-61
2022/08/05 19:57:26;;;;;;;4.53;3.60;;;;;;;;;;10170123;28;20095;-60
2022/08/05 20:02:44;;;;;;;4.35;3.63;;;;;;;;;;10173381;28;20081;-60
2022/08/05 20:07:44;;;;;;;9.18;3.67;;;;;;;;;;10171061;28;20061;-61
2022/08/05 20:12:46;;;;;;;;;;;;;;;;;;10181353;28;20507;-60
2022/08/05 20:17:45;;;;;;;3.95;3.42;;;;;;;;;;10186746;28;19964;-61
2022/08/05 20:22:48;;;;;;;5.38;4.05;;;;;;;;;;10175423;28;20081;-61
2022/08/05 20:27:48;;;;;;;3.85;3.47;;;;;;;;;;10170966;28;20073;-61
2022/08/05 20:32:47;;;;;;;4.10;3.45;;;;;;;;;;10160812;28;20056;-61
2022/08/05 20:37:45;;;;;;;6.72;4.00;;;;;;;;;;10168818;28;20065;-60
2022/08/05 20:43:05;;;;;;;3.83;3.53;;;;;;;;;;10163137;28;20066;-61
2022/08/05 20:48:03;;;;;;;7.05;4.75;;;;;;;;;;10164908;28;20460;-62
2022/08/05 20:53:02;;;;;;;5.85;3.35;;;;;;;;;;10138679;28;20701;-62
2022/08/05 20:58:00;;;;;;;6.25;4.03;;;;;;;;;;10139721;28;20073;-59
2022/08/05 21:03:03;;;;;;;4.65;3.50;;;;;;;;;;10174295;28;20065;-61
2022/08/05 21:08:05;;;;;;;5.45;3.75;;;;;;;;;;10171785;28;20065;-61
2022/08/05 21:13:03;;;;;;;3.58;3.28;;;;;;;;;;10176037;28;20078;-61
2022/08/05 21:18:10;;;;;;;3.95;3.63;;;;;;;;;;10176326;28;20070;-61
2022/08/05 21:23:11;;;;;;;5.07;3.88;;;;;;;;;;10179994;28;20107;-61
2022/08/05 21:28:11;;;;;;;4.22;3.60;;;;;;;;;;10172416;28;20137;-60
2022/08/05 21:33:17;;;;;;;5.18;4.68;;;;;;;;;;10175139;28;20066;-61
2022/08/05 21:38:20;;;;;;;5.22;3.50;;;;;;;;;;10171812;28;20432;-61
2022/08/05 21:43:19;;;;;;;5.30;3.60;;;;;;;;;;10176099;28;20078;-61
2022/08/05 21:48:23;;;;;;;4.93;3.40;;;;;;;;;;10161704;28;20074;-62
2022/08/05 21:53:22;;;;;;;4.60;4.20;;;;;;;;;;10173457;28;20466;-61
2022/08/05 21:58:25;;;;;;;3.75;3.45;;;;;;;;;;10171167;28;20122;-62
2022/08/05 22:03:30;;;;;;;8.23;3.97;;;;;;;;;;10182522;28;20416;-62
2022/08/05 22:08:49;;;;;;;4.55;3.72;;;;;;;;;;10195431;28;20715;-61
2022/08/05 22:13:49;;;;;;;5.72;4.20;;;;;;;;;;10194976;28;20060;-61
2022/08/05 22:19:08;;;;;;;7.15;4.57;;;;;;;;;;10191964;28;20503;-61
2022/08/05 22:29:50;;;;;;;7.88;4.25;;;;;;;;;;10195199;28;20081;-61
2022/08/05 22:34:52;;;;;;;6.63;3.72;;;;;;;;;;10191017;28;20435;-61
2022/08/05 22:39:52;;;;;;;4.65;4.25;;;;;;;;;;10193444;28;20054;-61
2022/08/05 22:44:52;;;;;;;6.45;4.20;;;;;;;;;;10194014;28;20069;-61
2022/08/05 22:49:55;;;;;;;4.70;4.13;;;;;;;;;;10194078;28;20088;-61
2022/08/05 22:55:14;;;;;;;3.85;3.17;;;;;;;;;;10190907;28;20073;-61
2022/08/05 23:00:17;;;;;;;6.03;3.58;;;;;;;;;;10193947;28;20073;-61
2022/08/05 23:05:20;;;;;;;6.95;3.88;;;;;;;;;;10194582;28;20046;-61
2022/08/05 23:10:19;;;;;;;5.53;3.80;;;;;;;;;;10193077;28;20512;-61
2022/08/05 23:15:21;;;;;;;7.57;4.50;;;;;;;;;;10194208;28;20046;-62
2022/08/05 23:20:27;;;;;;;9.45;4.22;;;;;;;;;;10193369;28;20054;-62
2022/08/05 23:25:26;;;;;;;7.50;4.78;;;;;;;;;;10193508;28;20042;-62
2022/08/05 23:30:44;;;;;;;7.32;4.30;;;;;;;;;;10195756;28;20084;-61
2022/08/05 23:35:52;;;;;;;6.45;4.60;;;;;;;;;;10201085;28;20248;-61
2022/08/05 23:40:53;;;;;;;8.45;4.85;;;;;;;;;;10200969;28;20492;-61
2022/08/05 23:45:51;;;;;;;6.55;5.40;;;;;;;;;;10201093;28;20065;-61
2022/08/05 23:50:50;;;;;;;9.50;4.95;;;;;;;;;;10201082;28;20081;-62
2022/08/05 23:55:49;;;;;;;6.38;4.70;;;;;;;;;;10200437;28;20042;-62
